• Join FlightAware (Why Join?)
  • Login
  • US Flag 
11:23PM EDT


 

Airport Tracker/Info


-or-


 

Live Flight TrackerFlight Track Log ✈ N465TP ✈ 27-Aug-2013 ✈ KCOS - KCPR

Flight Track Log - Related Links

Times and Time Zones

All times are in EDT time to prevent confusion due to time zone crossing. See the N465TP flight status page for this flight to view local times or setup timezone preferences in your user account.

Time Position Orientation Groundspeed Altitude Reporting Facility
EDT Latitude Longitude Course Direction KTS MPH feet Rate Location/Type
05:03PM 38.7325 -104.7083 North 152 175 8,600  Level Denver Center
05:04PM 38.7539 -104.6719 53° Northeast 166 191 9,900 1,140 Climbing Denver Center
05:05PM 38.8000 -104.6706 North 170 196 11,100 1,200 Climbing Denver Center
05:06PM 38.8531 -104.6686 North 171 197 12,400 1,200 Climbing Denver Center
05:07PM 38.8942 -104.6675 North 175 201 13,400 1,140 Climbing Denver Center
05:08PM 39.1782 -104.6167 North  Level FlightAware Approximate
05:08PM 38.9517 -104.6628 North 178 205 14,800  Level Denver Center
05:09PM 39.0033 -104.6597 North 183 211 16,000 1,080 Climbing Denver Center
05:10PM 39.0547 -104.6567 North 185 213 17,100 1,020 Climbing Denver Center
05:11PM 39.1194 -104.6544 North 197 227 18,200 1,020 Climbing Denver Center
05:12PM 39.1731 -104.6511 North 199 229 19,300 840 Climbing Denver Center
05:13PM 39.2308 -104.6481 North 205 236 20,200 960 Climbing Denver Center
05:14PM 39.3094 -104.6439 North 218 251 21,500 1,080 Climbing Denver Center
05:15PM 39.3711 -104.6397 North 223 257 22,500 960 Climbing Denver Center
05:16PM 39.4397 -104.6353 North 229 264 23,500 960 Climbing Denver Center
05:17PM 39.5050 -104.6314 North 231 266 24,600 900 Climbing Denver Center
05:18PM 39.5683 -104.6244 North 232 267 25,400 660 Climbing Denver Center
05:20PM 39.6358 -104.6219 North 250 288 26,000 240 Climbing Denver Center
05:21PM 39.7244 -104.6311 355° North 277 319 26,000  Level Denver Center
05:22PM 39.8006 -104.6539 347° North 285 328 26,000  Level Denver Center
05:23PM 39.8747 -104.6844 342° North 282 325 26,000  Level Denver Center
05:24PM 39.9497 -104.7175 341° North 289 333 26,000  Level Denver Center
05:25PM 40.0228 -104.7492 342° North 273 314 26,000  Level Denver Center
05:26PM 40.0958 -104.7794 342° North 272 313 26,000  Level Denver Center
05:27PM 40.1864 -104.8178 342° North 279 321 26,000  Level Denver Center
05:28PM 40.2586 -104.8503 341° North 275 316 26,000  Level Denver Center
05:29PM 40.3333 -104.8844 341° North 275 316 26,000  Level Denver Center
05:30PM 40.4022 -104.9247 336° Northwest 273 314 26,000  Level Denver Center
05:31PM 40.4728 -104.9686 335° Northwest 280 322 26,000  Level Denver Center
05:32PM 40.5575 -105.0181 336° Northwest 282 325 26,000  Level Denver Center
05:33PM 40.6269 -105.0589 336° Northwest 276 318 26,000  Level Denver Center
05:34PM 40.6969 -105.1008 336° Northwest 279 321 26,000  Level Denver Center
05:35PM 40.7647 -105.1361 338° Northwest 265 305 26,000  Level Denver Center
05:36PM 40.8353 -105.1811 334° Northwest 277 319 26,000  Level Denver Center
05:37PM 40.9061 -105.2214 337° Northwest 278 320 26,000  Level Denver Center
05:38PM 40.9906 -105.2736 335° Northwest 280 322 26,000  Level Denver Center
05:39PM 41.0597 -105.3142 336° Northwest 276 318 26,000 -60 Level Denver Center
05:40PM 41.1228 -105.3608 331° Northwest 272 313 25,900  Descending Denver Center
05:41PM 41.1958 -105.4128 332° Northwest 269 310 26,000  Climbing Denver Center
05:42PM 41.2586 -105.4578 332° Northwest 267 307 26,000  Level Denver Center
05:43PM 41.3331 -105.5128 331° Northwest 273 314 26,000  Level Denver Center
05:44PM 41.3972 -105.5553 334° Northwest 270 311 26,000  Level Denver Center
05:45PM 41.4714 -105.6039 334° Northwest 266 306 26,000  Level Denver Center
05:46PM 41.5342 -105.6478 332° Northwest 264 304 26,000  Level Denver Center
05:47PM 41.6100 -105.6983 334° Northwest 270 311 26,000  Level Denver Center
05:48PM 41.6744 -105.7456 331° Northwest 273 314 26,000  Level Denver Center
05:50PM 41.7406 -105.7867 335° Northwest 274 315 26,000  Level Denver Center
05:51PM 41.8181 -105.8392 333° Northwest 277 319 26,000  Level Denver Center
05:52PM 41.8864 -105.8808 336° Northwest 280 322 26,000  Level Denver Center
05:53PM 41.9625 -105.9347 332° Northwest 279 321 26,000  Level Denver Center
05:54PM 42.0297 -105.9692 339° North 272 313 26,000  Level Denver Center
05:55PM 42.1092 -106.0142 337° Northwest 272 313 26,000  Level Denver Center
05:56PM 42.1792 -106.0517 338° Northwest 279 321 26,000 -180 Level Denver Center
05:57PM 42.2594 -106.0978 337° Northwest 280 322 25,700 -1,020 Descending Denver Center
05:58PM 42.3303 -106.1367 338° Northwest 286 329 23,900 -1,980 Descending Denver Center
05:59PM 42.4111 -106.1819 338° Northwest 279 321 21,700 -2,040 Descending Denver Center
06:00PM 42.4739 -106.2189 337° Northwest 263 303 19,800 -1,980 Descending Denver Center
06:01PM 42.5481 -106.2608 337° Northwest 259 298 17,700 -1,800 Descending Denver Center
06:02PM 42.6100 -106.2947 338° Northwest 251 289 16,100 -1,680 Descending Denver Center
06:03PM 42.6639 -106.3275 336° Northwest 225 259 14,300 -1,920 Descending Denver Center
06:04PM 42.7269 -106.3547 342° North 215 247 12,200 -1,980 Descending Denver Center
06:05PM 42.7839 -106.3719 347° North 216 249 10,300 -2,100 Descending Denver Center
06:06PM 42.8492 -106.3800 355° North 214 246 7,900 -1,560 Descending Denver Center
06:07PM 42.9103 -106.3886 354° North 212 244 7,100 -780 Descending Denver Center
06:09PM 42.9000 -106.4500 340° North  Level FlightAware Approximate